Time,TemperatureF,DewpointF,PressureIn,WindDirection,WindDirectionDegrees,WindSpeedMPH,WindSpeedGustMPH,Humidity,HourlyPrecipIn,Conditions,Clouds,dailyrainin,SoftwareType,DateUTC
2013-06-23 00:01:00,80.3,70.0,29.90,ENE,78,0.0,0.0,71,0.00,CLR,,0.00,WeatherDisplay:10.37,2013-06-23 05:01:00,
2013-06-23 00:06:00,80.2,69.9,29.90,ENE,78,0.0,0.0,71,0.00,CLR,,0.00,WeatherDisplay:10.37,2013-06-23 05:06:00,
2013-06-23 00:11:00,80.1,70.3,29.90,ENE,78,0.0,0.0,72,0.00,CLR,,0.00,WeatherDisplay:10.37,2013-06-23 05:11:00,
2013-06-23 00:16:00,80.0,70.2,29.90,ENE,78,0.0,0.0,72,0.00,CLR,,0.00,WeatherDisplay:10.37,2013-06-23 05:16:00,
2013-06-23 00:21:00,79.9,70.5,29.90,ENE,78,0.0,0.0,73,0.00,CLR,,0.00,WeatherDisplay:10.37,2013-06-23 05:21:00,
2013-06-23 00:26:00,79.7,70.3,29.90,ENE,78,0.0,0.0,73,0.00,CLR,,0.00,WeatherDisplay:10.37,2013-06-23 05:26:00,
2013-06-23 00:31:00,79.5,70.5,29.90,ENE,78,0.0,0.0,74,0.00,CLR,,0.00,WeatherDisplay:10.37,2013-06-23 05:31:00,
2013-06-23 00:36:00,79.4,70.4,29.90,ENE,78,0.0,0.0,74,0.00,CLR,,0.00,WeatherDisplay:10.37,2013-06-23 05:36:00,
2013-06-23 00:41:00,79.3,70.3,29.90,ENE,78,0.0,0.0,74,0.00,CLR,,0.00,WeatherDisplay:10.37,2013-06-23 05:41:00,
2013-06-23 00:46:00,79.1,70.5,29.90,ENE,78,0.0,0.0,75,0.00,CLR,,0.00,WeatherDisplay:10.37,2013-06-23 05:46:00,
2013-06-23 00:51:00,79.0,70.4,29.90,ENE,76,0.0,0.0,75,0.00,CLR,,0.00,WeatherDisplay:10.37,2013-06-23 05:51:00,
2013-06-23 00:56:00,78.9,70.7,29.90,ENE,76,0.0,0.0,76,0.00,CLR,,0.00,WeatherDisplay:10.37,2013-06-23 05:56:00,
2013-06-23 01:01:00,78.9,70.7,29.90,ENE,76,0.0,0.0,76,0.00,CLR,,0.00,WeatherDisplay:10.37,2013-06-23 06:01:00,
2013-06-23 01:06:00,78.7,70.9,29.90,SSW,193,0.1,1.2,77,0.00,CLR,,0.00,WeatherDisplay:10.37,2013-06-23 06:06:00,
2013-06-23 01:11:00,78.6,71.2,29.89,SSW,193,0.0,0.0,78,0.00,CLR,,0.00,WeatherDisplay:10.37,2013-06-23 06:11:00,
2013-06-23 01:16:00,78.5,71.1,29.89,NE,43,0.0,0.0,78,0.00,CLR,,0.00,WeatherDisplay:10.37,2013-06-23 06:16:00,
2013-06-23 01:21:00,78.4,71.3,29.89,SW,234,0.1,2.3,79,0.00,CLR,,0.00,WeatherDisplay:10.37,2013-06-23 06:21:00,
2013-06-23 01:26:00,78.3,71.2,29.89,SW,234,0.0,0.0,79,0.00,CLR,,0.00,WeatherDisplay:10.37,2013-06-23 06:26:00,
2013-06-23 01:31:00,78.2,71.5,29.89,WSW,254,0.7,1.2,80,0.00,CLR,,0.00,WeatherDisplay:10.37,2013-06-23 06:31:00,
2013-06-23 01:36:00,78.1,71.4,29.89,WSW,246,0.0,0.0,80,0.00,CLR,,0.00,WeatherDisplay:10.37,2013-06-23 06:36:00,
2013-06-23 01:41:00,78.0,71.7,29.89,NW,320,0.0,0.0,81,0.00,CLR,,0.00,WeatherDisplay:10.37,2013-06-23 06:41:00,
2013-06-23 01:46:00,77.9,71.6,29.89,NW,320,0.0,1.2,81,0.00,CLR,,0.00,WeatherDisplay:10.37,2013-06-23 06:46:00,
2013-06-23 01:51:00,77.8,71.9,29.89,SSW,202,0.0,1.2,82,0.00,CLR,,0.00,WeatherDisplay:10.37,2013-06-23 06:51:00,
2013-06-23 01:56:00,77.8,71.9,29.89,SW,227,0.0,0.0,82,0.00,CLR,,0.00,WeatherDisplay:10.37,2013-06-23 06:56:00,
2013-06-23 02:01:00,77.6,72.0,29.89,WSW,252,0.2,2.3,83,0.00,CLR,,0.00,WeatherDisplay:10.37,2013-06-23 07:01:00,
2013-06-23 02:06:00,77.6,72.0,29.89,WSW,252,0.0,0.0,83,0.00,CLR,,0.00,WeatherDisplay:10.37,2013-06-23 07:06:00,
2013-06-23 02:11:00,77.5,71.9,29.89,WSW,252,0.0,0.0,83,0.00,CLR,,0.00,WeatherDisplay:10.37,2013-06-23 07:11:00,
2013-06-23 02:16:00,77.4,72.2,29.88,WSW,252,0.0,0.0,84,0.00,CLR,,0.00,WeatherDisplay:10.37,2013-06-23 07:16:00,
2013-06-23 02:21:00,77.3,72.1,29.89,SW,218,0.0,0.0,84,0.00,CLR,,0.00,WeatherDisplay:10.37,2013-06-23 07:21:00,
2013-06-23 02:26:00,77.3,72.1,29.88,SW,234,0.0,0.0,84,0.00,CLR,,0.00,WeatherDisplay:10.37,2013-06-23 07:26:00,
2013-06-23 02:31:00,77.3,72.4,29.88,SSW,207,0.0,0.0,85,0.00,CLR,,0.00,WeatherDisplay:10.37,2013-06-23 07:31:00,
2013-06-23 02:36:00,77.3,72.4,29.88,WSW,239,0.0,0.0,85,0.00,CLR,,0.00,WeatherDisplay:10.37,2013-06-23 07:36:00,
2013-06-23 02:41:00,77.3,72.4,29.88,WSW,239,0.0,0.0,85,0.00,CLR,,0.00,WeatherDisplay:10.37,2013-06-23 07:41:00,
2013-06-23 02:46:00,77.3,72.4,29.88,ENE,61,0.0,2.3,85,0.00,CLR,,0.00,WeatherDisplay:10.37,2013-06-23 07:46:00,
2013-06-23 02:51:00,77.3,72.8,29.88,SW,219,1.5,3.5,86,0.00,CLR,,0.00,WeatherDisplay:10.37,2013-06-23 07:51:00,
2013-06-23 02:56:00,77.2,72.7,29.88,SW,225,0.0,0.0,86,0.00,CLR,,0.00,WeatherDisplay:10.37,2013-06-23 07:56:00,
2013-06-23 03:01:00,77.3,72.8,29.88,WNW,285,0.2,1.2,86,0.00,CLR,,0.00,WeatherDisplay:10.37,2013-06-23 08:01:00,
2013-06-23 03:06:00,77.2,72.7,29.88,WNW,284,0.1,1.2,86,0.00,CLR,,0.00,WeatherDisplay:10.37,2013-06-23 08:06:00,
2013-06-23 03:11:00,77.2,72.7,29.88,West,271,0.0,0.0,86,0.00,CLR,,0.00,WeatherDisplay:10.37,2013-06-23 08:11:00,
2013-06-23 03:16:00,77.2,73.0,29.88,WNW,300,0.0,2.3,87,0.00,CLR,,0.00,WeatherDisplay:10.37,2013-06-23 08:16:00,
2013-06-23 03:21:00,77.2,73.0,29.88,WNW,299,0.0,0.0,87,0.00,CLR,,0.00,WeatherDisplay:10.37,2013-06-23 08:21:00,
2013-06-23 03:26:00,77.2,73.0,29.88,West,263,0.0,0.0,87,0.00,CLR,,0.00,WeatherDisplay:10.37,2013-06-23 08:26:00,
2013-06-23 03:31:00,77.2,73.0,29.88,WSW,257,2.3,3.5,87,0.00,CLR,,0.00,WeatherDisplay:10.37,2013-06-23 08:31:00,
2013-06-23 03:36:00,77.2,73.0,29.88,WSW,255,0.0,0.0,87,0.00,CLR,,0.00,WeatherDisplay:10.37,2013-06-23 08:36:00,
2013-06-23 03:41:00,77.2,73.0,29.88,NNE,14,0.0,0.0,87,0.00,CLR,,0.00,WeatherDisplay:10.37,2013-06-23 08:41:00,
2013-06-23 03:46:00,77.2,73.0,29.88,NW,306,0.0,0.0,87,0.00,CLR,,0.00,WeatherDisplay:10.37,2013-06-23 08:46:00,
2013-06-23 03:51:00,77.2,73.0,29.88,NW,306,0.0,0.0,87,0.00,CLR,,0.00,WeatherDisplay:10.37,2013-06-23 08:51:00,
2013-06-23 03:56:00,77.1,72.9,29.88,NW,305,0.0,0.0,87,0.00,CLR,,0.00,WeatherDisplay:10.37,2013-06-23 08:56:00,
2013-06-23 04:01:00,77.1,72.9,29.87,NW,325,0.0,0.0,87,0.00,CLR,,0.00,WeatherDisplay:10.37,2013-06-23 09:01:00,
2013-06-23 04:06:00,77.1,72.9,29.87,NNW,329,0.0,0.0,87,0.00,CLR,,0.00,WeatherDisplay:10.37,2013-06-23 09:06:00,
2013-06-23 04:11:00,77.1,72.9,29.87,NW,325,0.0,0.0,87,0.00,CLR,,0.00,WeatherDisplay:10.37,2013-06-23 09:11:00,
2013-06-23 04:16:00,77.0,72.8,29.87,SW,235,0.0,0.0,87,0.00,CLR,,0.00,WeatherDisplay:10.37,2013-06-23 09:16:00,
2013-06-23 04:21:00,76.9,72.7,29.87,SW,235,0.0,0.0,87,0.00,CLR,,0.00,WeatherDisplay:10.37,2013-06-23 09:21:00,
2013-06-23 04:26:00,76.9,72.7,29.88,WSW,237,0.0,1.2,87,0.00,CLR,,0.00,WeatherDisplay:10.37,2013-06-23 09:26:00,
2013-06-23 04:31:00,76.8,72.6,29.87,WSW,237,0.0,0.0,87,0.00,CLR,,0.00,WeatherDisplay:10.37,2013-06-23 09:31:00,
2013-06-23 04:36:00,76.7,72.9,29.88,WSW,237,0.0,0.0,88,0.00,CLR,,0.00,WeatherDisplay:10.37,2013-06-23 09:36:00,
2013-06-23 04:41:00,76.7,72.9,29.87,SW,236,0.0,0.0,88,0.00,CLR,,0.00,WeatherDisplay:10.37,2013-06-23 09:41:00,
2013-06-23 04:46:00,76.6,72.8,29.87,SW,236,0.0,0.0,88,0.00,CLR,,0.00,WeatherDisplay:10.37,2013-06-23 09:46:00,
2013-06-23 04:51:00,76.6,72.8,29.88,SW,236,0.0,0.0,88,0.00,CLR,,0.00,WeatherDisplay:10.37,2013-06-23 09:51:00,
2013-06-23 04:56:00,76.6,73.1,29.88,SW,236,0.0,0.0,89,0.00,CLR,,0.00,WeatherDisplay:10.37,2013-06-23 09:56:00,
2013-06-23 05:01:00,76.6,73.1,29.88,West,263,0.0,0.0,89,0.00,CLR,,0.00,WeatherDisplay:10.37,2013-06-23 10:01:00,
2013-06-23 05:06:00,76.5,73.0,29.88,West,259,0.0,1.2,89,0.00,CLR,,0.00,WeatherDisplay:10.37,2013-06-23 10:06:00,
2013-06-23 05:11:00,76.5,73.0,29.87,West,260,0.0,0.0,89,0.00,CLR,,0.00,WeatherDisplay:10.37,2013-06-23 10:11:00,
2013-06-23 05:16:00,76.5,73.0,29.87,SSW,211,0.0,0.0,89,0.00,CLR,,0.00,WeatherDisplay:10.37,2013-06-23 10:16:00,
2013-06-23 05:21:00,76.5,73.0,29.88,SSW,204,0.0,0.0,89,0.00,CLR,,0.00,WeatherDisplay:10.37,2013-06-23 10:21:00,
2013-06-23 05:26:00,76.6,73.1,29.87,NW,308,0.8,3.5,89,0.00,CLR,,0.00,WeatherDisplay:10.37,2013-06-23 10:26:00,
2013-06-23 05:31:00,76.6,73.1,29.87,West,270,0.0,1.2,89,0.00,CLR,,0.00,WeatherDisplay:10.37,2013-06-23 10:31:00,
2013-06-23 05:36:00,76.5,73.0,29.88,WSW,246,0.0,0.0,89,0.00,CLR,,0.00,WeatherDisplay:10.37,2013-06-23 10:36:00,
2013-06-23 05:41:00,76.5,73.3,29.87,WSW,250,0.4,2.3,90,0.00,CLR,,0.00,WeatherDisplay:10.37,2013-06-23 10:41:00,
2013-06-23 05:46:00,76.5,73.0,29.87,WSW,247,0.0,1.2,89,0.00,CLR,,0.00,WeatherDisplay:10.37,2013-06-23 10:46:00,
2013-06-23 05:51:00,76.5,73.0,29.87,WSW,247,0.0,0.0,89,0.00,CLR,,0.00,WeatherDisplay:10.37,2013-06-23 10:51:00,
2013-06-23 05:56:00,76.5,73.0,29.88,SW,219,0.3,5.0,89,0.00,CLR,,0.00,WeatherDisplay:10.37,2013-06-23 10:56:00,
2013-06-23 06:01:00,76.5,73.0,29.88,SW,229,0.0,0.0,89,0.00,CLR,,0.00,WeatherDisplay:10.37,2013-06-23 11:01:00,
2013-06-23 06:06:00,76.5,73.0,29.87,SW,221,0.1,1.2,89,0.00,CLR,,0.00,WeatherDisplay:10.37,2013-06-23 11:06:00,
2013-06-23 06:11:00,76.5,73.3,29.87,SW,227,0.0,0.0,90,0.00,CLR,,0.00,WeatherDisplay:10.37,2013-06-23 11:11:00,
2013-06-23 06:16:00,76.5,73.3,29.87,SW,233,0.0,0.0,90,0.00,CLR,,0.00,WeatherDisplay:10.37,2013-06-23 11:16:00,
2013-06-23 06:21:00,76.5,73.3,29.88,SW,233,0.0,0.0,90,0.00,CLR,,0.00,WeatherDisplay:10.37,2013-06-23 11:21:00,
2013-06-23 06:26:00,76.5,73.3,29.87,North,355,0.1,2.3,90,0.00,CLR,,0.00,WeatherDisplay:10.37,2013-06-23 11:26:00,
2013-06-23 06:31:00,76.5,73.3,29.87,North,355,0.0,0.0,90,0.00,CLR,,0.00,WeatherDisplay:10.37,2013-06-23 11:31:00,
2013-06-23 06:36:00,76.5,73.3,29.87,SW,228,0.0,0.0,90,0.00,CLR,,0.00,WeatherDisplay:10.37,2013-06-23 11:36:00,
2013-06-23 06:41:00,76.5,73.3,29.87,West,260,0.0,1.2,90,0.00,CLR,,0.00,WeatherDisplay:10.37,2013-06-23 11:41:00,
2013-06-23 06:46:00,76.5,73.3,29.87,West,272,0.0,0.0,90,0.00,CLR,,0.00,WeatherDisplay:10.37,2013-06-23 11:46:00,
2013-06-23 06:51:00,76.5,73.3,29.87,West,263,0.0,0.0,90,0.00,CLR,,0.00,WeatherDisplay:10.37,2013-06-23 11:51:00,
2013-06-23 06:56:00,76.5,73.3,29.88,West,263,0.0,0.0,90,0.00,CLR,,0.00,WeatherDisplay:10.37,2013-06-23 11:56:00,
2013-06-23 07:01:00,76.5,73.3,29.88,West,263,0.0,0.0,90,0.00,CLR,,0.00,WeatherDisplay:10.37,2013-06-23 12:01:00,
2013-06-23 07:06:00,76.5,73.3,29.88,WSW,251,0.0,0.0,90,0.00,CLR,,0.00,WeatherDisplay:10.37,2013-06-23 12:06:00,
2013-06-23 07:11:00,76.5,73.3,29.88,South,184,0.0,0.0,90,0.00,CLR,,0.00,WeatherDisplay:10.37,2013-06-23 12:11:00,
2013-06-23 07:16:00,76.5,73.3,29.88,SSW,200,0.0,0.0,90,0.00,CLR,,0.00,WeatherDisplay:10.37,2013-06-23 12:16:00,
2013-06-23 07:21:00,76.5,73.3,29.88,NE,35,0.0,0.0,90,0.00,CLR,,0.00,WeatherDisplay:10.37,2013-06-23 12:21:00,
2013-06-23 07:26:00,76.6,73.4,29.88,WNW,288,0.0,0.0,90,0.00,CLR,,0.00,WeatherDisplay:10.37,2013-06-23 12:26:00,
2013-06-23 07:31:00,76.6,73.1,29.88,SW,219,0.0,0.0,89,0.00,CLR,,0.00,WeatherDisplay:10.37,2013-06-23 12:31:00,
2013-06-23 07:36:00,76.6,73.1,29.88,WSW,249,0.1,1.2,89,0.00,CLR,,0.00,WeatherDisplay:10.37,2013-06-23 12:36:00,
2013-06-23 07:41:00,76.7,73.2,29.88,WSW,252,0.0,0.0,89,0.00,CLR,,0.00,WeatherDisplay:10.37,2013-06-23 12:41:00,
2013-06-23 07:46:00,76.7,73.2,29.88,WSW,248,0.0,0.0,89,0.00,CLR,,0.00,WeatherDisplay:10.37,2013-06-23 12:46:00,
2013-06-23 07:51:00,76.8,73.3,29.88,South,179,0.0,0.0,89,0.00,CLR,,0.00,WeatherDisplay:10.37,2013-06-23 12:51:00,
2013-06-23 07:56:00,76.9,73.1,29.88,South,171,0.0,0.0,88,0.00,CLR,,0.00,WeatherDisplay:10.37,2013-06-23 12:56:00,
2013-06-23 08:01:00,77.0,73.2,29.88,NE,54,0.1,2.0,88,0.00,CLR,,0.00,WeatherDisplay:10.37,2013-06-23 13:01:00,
2013-06-23 08:06:00,77.1,73.3,29.89,NNE,31,0.0,0.0,88,0.00,CLR,,0.00,WeatherDisplay:10.37,2013-06-23 13:06:00,
2013-06-23 08:11:00,77.2,73.4,29.89,SW,230,0.0,0.0,88,0.00,CLR,,0.00,WeatherDisplay:10.37,2013-06-23 13:11:00,
2013-06-23 08:16:00,77.3,73.1,29.90,SW,225,0.0,0.0,87,0.00,CLR,,0.00,WeatherDisplay:10.37,2013-06-23 13:16:00,
2013-06-23 08:21:00,77.5,73.7,29.90,West,265,0.0,0.0,88,0.00,CLR,,0.00,WeatherDisplay:10.37,2013-06-23 13:21:00,
2013-06-23 08:26:00,77.7,73.5,29.90,SSW,209,0.1,3.5,87,0.00,CLR,,0.00,WeatherDisplay:10.37,2013-06-23 13:26:00,
2013-06-23 08:31:00,78.0,73.8,29.90,SSW,203,0.0,0.0,87,0.00,CLR,,0.00,WeatherDisplay:10.37,2013-06-23 13:31:00,
2013-06-23 08:36:00,78.1,73.6,29.90,West,274,0.6,4.6,86,0.00,CLR,,0.00,WeatherDisplay:10.37,2013-06-23 13:36:00,
2013-06-23 08:41:00,78.2,73.3,29.90,SSW,200,0.0,0.0,85,0.00,CLR,,0.00,WeatherDisplay:10.37,2013-06-23 13:41:00,
2013-06-23 08:46:00,78.3,73.4,29.90,SW,232,0.1,0.0,85,0.00,CLR,,0.00,WeatherDisplay:10.37,2013-06-23 13:46:00,
2013-06-23 08:51:00,78.4,73.2,29.90,SSW,205,1.1,1.2,84,0.00,CLR,,0.00,WeatherDisplay:10.37,2013-06-23 13:51:00,
2013-06-23 08:56:00,78.7,73.5,29.90,SW,225,0.1,1.2,84,0.00,CLR,,0.00,WeatherDisplay:10.37,2013-06-23 13:56:00,
2013-06-23 09:02:00,79.0,73.4,29.90,SW,215,0.9,1.2,83,0.00,CLR,,0.00,WeatherDisplay:10.37,2013-06-23 14:02:00,
2013-06-23 09:07:00,79.3,73.3,29.90,SW,216,0.0,0.0,82,0.00,CLR,,0.00,WeatherDisplay:10.37,2013-06-23 14:07:00,
2013-06-23 09:12:00,80.0,73.6,29.90,NNW,333,0.1,1.2,81,0.00,CLR,,0.00,WeatherDisplay:10.37,2013-06-23 14:12:00,
2013-06-23 09:17:00,80.6,73.1,29.90,NW,306,0.3,1.2,78,0.00,CLR,,0.00,WeatherDisplay:10.37,2013-06-23 14:17:00,
2013-06-23 09:22:00,81.3,73.4,29.90,SW,220,0.5,1.2,77,0.00,CLR,,0.00,WeatherDisplay:10.37,2013-06-23 14:22:00,
2013-06-23 09:27:00,81.8,72.7,29.90,East,86,0.3,3.5,74,0.00,CLR,,0.00,WeatherDisplay:10.37,2013-06-23 14:27:00,
2013-06-23 09:32:00,82.3,72.4,29.90,SSW,213,2.6,4.0,72,0.00,CLR,,0.00,WeatherDisplay:10.37,2013-06-23 14:32:00,
2013-06-23 09:37:00,82.6,72.2,29.90,West,281,0.3,1.2,71,0.00,CLR,,0.00,WeatherDisplay:10.37,2013-06-23 14:37:00,
2013-06-23 09:42:00,82.8,72.4,29.90,West,277,0.0,1.2,71,0.00,CLR,,0.00,WeatherDisplay:10.37,2013-06-23 14:42:00,
2013-06-23 09:47:00,83.1,71.9,29.91,SSW,209,0.4,3.5,69,0.00,CLR,,0.00,WeatherDisplay:10.37,2013-06-23 14:47:00,
2013-06-23 09:52:00,83.4,72.2,29.91,WSW,250,0.4,2.3,69,0.00,CLR,,0.00,WeatherDisplay:10.37,2013-06-23 14:52:00,
2013-06-23 09:57:00,83.7,72.0,29.91,South,182,0.0,0.0,68,0.00,CLR,,0.00,WeatherDisplay:10.37,2013-06-23 14:57:00,
2013-06-23 10:03:00,83.9,70.9,29.90,SW,216,0.8,5.0,65,0.00,CLR,,0.00,WeatherDisplay:10.37,2013-06-23 15:03:00,
2013-06-23 10:08:00,84.2,71.2,29.90,West,259,0.5,2.3,65,0.00,CLR,,0.00,WeatherDisplay:10.37,2013-06-23 15:08:00,
2013-06-23 10:13:00,84.6,70.6,29.90,West,263,0.1,2.0,63,0.00,CLR,,0.00,WeatherDisplay:10.37,2013-06-23 15:13:00,
2013-06-23 10:18:00,85.0,70.0,29.90,SSE,166,1.8,3.5,61,0.00,CLR,,0.00,WeatherDisplay:10.37,2013-06-23 15:18:00,
2013-06-23 10:23:00,85.4,70.4,29.90,SSE,163,0.7,2.0,61,0.00,CLR,,0.00,WeatherDisplay:10.37,2013-06-23 15:23:00,
2013-06-23 10:28:00,85.7,70.2,29.91,WSW,249,0.8,2.0,60,0.00,CLR,,0.00,WeatherDisplay:10.37,2013-06-23 15:28:00,
2013-06-23 10:34:00,86.2,70.7,29.90,SSW,211,1.0,4.0,60,0.00,CLR,,0.00,WeatherDisplay:10.37,2013-06-23 15:34:00,
2013-06-23 10:39:00,86.8,71.2,29.90,WNW,287,0.1,1.2,60,0.00,CLR,,0.00,WeatherDisplay:10.37,2013-06-23 15:39:00,
2013-06-23 10:44:00,87.2,71.1,29.90,WSW,254,0.2,3.5,59,0.00,CLR,,0.00,WeatherDisplay:10.37,2013-06-23 15:44:00,
2013-06-23 10:49:00,87.3,71.2,29.90,SW,230,0.0,0.0,59,0.00,CLR,,0.00,WeatherDisplay:10.37,2013-06-23 15:49:00,
2013-06-23 10:54:00,87.2,71.1,29.91,WSW,246,1.0,1.2,59,0.00,CLR,,0.00,WeatherDisplay:10.37,2013-06-23 15:54:00,
2013-06-23 10:59:00,87.1,71.5,29.90,NE,50,0.5,1.2,60,0.00,CLR,,0.00,WeatherDisplay:10.37,2013-06-23 15:59:00,
2013-06-23 11:04:00,87.5,71.4,29.90,NW,304,0.3,1.2,59,0.00,CLR,,0.00,WeatherDisplay:10.37,2013-06-23 16:04:00,
2013-06-23 11:09:00,88.0,71.9,29.90,West,259,0.5,2.3,59,0.00,CLR,,0.00,WeatherDisplay:10.37,2013-06-23 16:09:00,
2013-06-23 11:14:00,88.4,71.2,29.90,West,270,0.5,3.5,57,0.00,CLR,,0.00,WeatherDisplay:10.37,2013-06-23 16:14:00,
2013-06-23 11:19:00,88.3,70.6,29.90,West,274,1.2,4.6,56,0.00,CLR,,0.00,WeatherDisplay:10.37,2013-06-23 16:19:00,
2013-06-23 11:24:00,88.1,69.9,29.90,WSW,248,0.5,4.6,55,0.00,CLR,,0.00,WeatherDisplay:10.37,2013-06-23 16:24:00,
2013-06-23 11:29:00,88.1,70.4,29.91,ESE,109,0.5,3.5,56,0.00,CLR,,0.00,WeatherDisplay:10.37,2013-06-23 16:29:00,
2013-06-23 11:34:00,88.3,70.6,29.91,WSW,251,0.0,3.0,56,0.00,CLR,,0.00,WeatherDisplay:10.37,2013-06-23 16:34:00,
2013-06-23 11:40:00,88.9,70.6,29.91,South,190,2.1,7.0,55,0.00,CLR,,0.00,WeatherDisplay:10.37,2013-06-23 16:40:00,
2013-06-23 11:45:00,89.2,70.9,29.91,North,360,0.0,1.2,55,0.00,CLR,,0.00,WeatherDisplay:10.37,2013-06-23 16:45:00,
2013-06-23 11:50:00,89.2,70.9,29.90,SW,214,0.4,2.3,55,0.00,CLR,,0.00,WeatherDisplay:10.37,2013-06-23 16:50:00,
2013-06-23 11:55:00,89.2,70.4,29.91,SSW,212,0.0,1.2,54,0.00,CLR,,0.00,WeatherDisplay:10.37,2013-06-23 16:55:00,
2013-06-23 11:57:00,89.2,69.3,29.91,ENE,67,1.0,1.2,52,0.00,CLR,,0.00,WeatherDisplay:10.37,2013-06-23 16:57:00,
2013-06-23 12:02:00,88.9,70.1,29.91,SW,221,0.4,2.0,54,0.00,CLR,,0.00,WeatherDisplay:10.37,2013-06-23 17:02:00,
2013-06-23 12:07:00,88.6,69.8,29.91,West,278,0.0,0.0,54,0.00,CLR,,0.00,WeatherDisplay:10.37,2013-06-23 17:07:00,
2013-06-23 12:12:00,88.7,69.9,29.90,West,259,0.0,0.0,54,0.00,CLR,,0.00,WeatherDisplay:10.37,2013-06-23 17:12:00,
2013-06-23 12:17:00,89.1,69.7,29.90,West,267,0.4,2.3,53,0.00,CLR,,0.00,WeatherDisplay:10.37,2013-06-23 17:17:00,
2013-06-23 12:22:00,89.7,69.2,29.90,NE,44,0.0,2.0,51,0.00,CLR,,0.00,WeatherDisplay:10.37,2013-06-23 17:22:00,
2013-06-23 12:27:00,90.1,69.5,29.90,SSW,194,1.1,4.0,51,0.00,CLR,,0.00,WeatherDisplay:10.37,2013-06-23 17:27:00,
2013-06-23 12:32:00,90.8,69.0,29.90,SSE,147,1.4,3.0,49,0.00,CLR,,0.00,WeatherDisplay:10.37,2013-06-23 17:32:00,
2013-06-23 12:37:00,91.1,69.3,29.90,ESE,120,1.3,3.5,49,0.00,CLR,,0.00,WeatherDisplay:10.37,2013-06-23 17:37:00,
2013-06-23 12:42:00,91.8,69.3,29.90,North,355,0.9,2.3,48,0.00,CLR,,0.00,WeatherDisplay:10.37,2013-06-23 17:42:00,
2013-06-23 12:47:00,92.7,69.5,29.89,WNW,302,0.0,0.0,47,0.00,CLR,,0.00,WeatherDisplay:10.37,2013-06-23 17:47:00,
2013-06-23 12:52:00,93.5,69.0,29.89,West,268,1.0,0.0,45,0.00,CLR,,0.00,WeatherDisplay:10.37,2013-06-23 17:52:00,
2013-06-23 12:57:00,93.7,68.5,29.89,SSE,157,0.9,3.5,44,0.00,CLR,,0.00,WeatherDisplay:10.37,2013-06-23 17:57:00,
2013-06-23 13:02:00,93.6,67.7,29.89,ENE,76,3.0,3.5,43,0.00,CLR,,0.00,WeatherDisplay:10.37,2013-06-23 18:02:00,
2013-06-23 13:07:00,93.3,68.1,29.89,NNE,20,0.7,2.3,44,0.00,CLR,,0.00,WeatherDisplay:10.37,2013-06-23 18:07:00,
2013-06-23 13:12:00,93.4,68.9,29.89,WSW,244,0.9,3.5,45,0.00,CLR,,0.00,WeatherDisplay:10.37,2013-06-23 18:12:00,
2013-06-23 13:17:00,93.4,68.9,29.89,West,275,1.2,2.3,45,0.00,CLR,,0.00,WeatherDisplay:10.37,2013-06-23 18:17:00,
2013-06-23 13:22:00,93.3,69.4,29.89,NNW,343,0.3,0.0,46,0.00,CLR,,0.00,WeatherDisplay:10.37,2013-06-23 18:22:00,
2013-06-23 13:27:00,93.2,68.7,29.89,North,5,0.0,0.0,45,0.00,CLR,,0.00,WeatherDisplay:10.37,2013-06-23 18:27:00,
2013-06-23 13:32:00,93.3,68.8,29.89,SSW,203,0.0,1.2,45,0.00,CLR,,0.00,WeatherDisplay:10.37,2013-06-23 18:32:00,
2013-06-23 13:37:00,93.3,68.8,29.89,WSW,250,0.3,3.5,45,0.00,CLR,,0.00,WeatherDisplay:10.37,2013-06-23 18:37:00,
2013-06-23 13:42:00,93.4,68.9,29.88,WNW,293,0.0,0.0,45,0.00,CLR,,0.00,WeatherDisplay:10.37,2013-06-23 18:42:00,
2013-06-23 13:47:00,93.4,67.6,29.88,ENE,57,0.0,0.0,43,0.00,CLR,,0.00,WeatherDisplay:10.37,2013-06-23 18:47:00,
2013-06-23 13:52:00,93.1,69.3,29.88,WSW,250,0.2,1.2,46,0.00,CLR,,0.00,WeatherDisplay:10.37,2013-06-23 18:52:00,
2013-06-23 13:57:00,93.0,68.5,29.88,West,270,0.0,0.0,45,0.00,CLR,,0.00,WeatherDisplay:10.37,2013-06-23 18:57:00,
2013-06-23 14:02:00,93.2,69.3,29.87,NE,46,0.1,1.2,46,0.00,CLR,,0.00,WeatherDisplay:10.37,2013-06-23 19:02:00,
2013-06-23 14:07:00,93.9,69.3,29.87,West,263,0.7,1.2,45,0.00,CLR,,0.00,WeatherDisplay:10.37,2013-06-23 19:07:00,
2013-06-23 14:12:00,94.3,68.4,29.87,NE,38,0.5,1.2,43,0.00,CLR,,0.00,WeatherDisplay:10.37,2013-06-23 19:12:00,
2013-06-23 14:17:00,94.5,68.5,29.87,SW,228,0.7,3.5,43,0.00,CLR,,0.00,WeatherDisplay:10.37,2013-06-23 19:17:00,
2013-06-23 14:22:00,94.5,68.5,29.87,NNW,328,0.0,1.2,43,0.00,CLR,,0.00,WeatherDisplay:10.37,2013-06-23 19:22:00,
2013-06-23 14:27:00,94.8,68.8,29.87,SSW,208,0.0,0.0,43,0.00,CLR,,0.00,WeatherDisplay:10.37,2013-06-23 19:27:00,
2013-06-23 14:32:00,94.9,68.2,29.86,East,96,0.2,1.2,42,0.00,CLR,,0.00,WeatherDisplay:10.37,2013-06-23 19:32:00,
2013-06-23 14:37:00,95.3,69.9,29.86,ENE,76,0.1,2.0,44,0.00,CLR,,0.00,WeatherDisplay:10.37,2013-06-23 19:37:00,
2013-06-23 14:42:00,96.0,69.9,29.86,East,97,0.0,0.0,43,0.00,CLR,,0.00,WeatherDisplay:10.37,2013-06-23 19:42:00,
2013-06-23 14:47:00,95.7,66.8,29.86,SE,145,0.3,1.2,39,0.00,CLR,,0.00,WeatherDisplay:10.37,2013-06-23 19:47:00,
2013-06-23 14:52:00,95.8,66.1,29.85,NNE,32,0.3,3.5,38,0.00,CLR,,0.00,WeatherDisplay:10.37,2013-06-23 19:52:00,
2013-06-23 14:57:00,95.8,66.9,29.85,SW,232,0.2,1.2,39,0.00,CLR,,0.00,WeatherDisplay:10.37,2013-06-23 19:57:00,
2013-06-23 15:02:00,95.8,65.4,29.85,NE,34,0.4,2.3,37,0.00,CLR,,0.00,WeatherDisplay:10.37,2013-06-23 20:02:00,
2013-06-23 15:07:00,95.6,65.9,29.85,SE,134,0.3,1.2,38,0.00,CLR,,0.00,WeatherDisplay:10.37,2013-06-23 20:07:00,
2013-06-23 15:12:00,95.7,66.0,29.84,SSW,213,0.9,2.3,38,0.00,CLR,,0.00,WeatherDisplay:10.37,2013-06-23 20:12:00,
2013-06-23 15:17:00,96.2,66.5,29.84,SW,217,0.7,2.3,38,0.00,CLR,,0.00,WeatherDisplay:10.37,2013-06-23 20:17:00,
2013-06-23 15:22:00,96.6,66.1,29.84,NE,38,0.8,3.5,37,0.00,CLR,,0.00,WeatherDisplay:10.37,2013-06-23 20:22:00,
2013-06-23 15:27:00,96.3,67.3,29.84,ENE,57,0.8,1.2,39,0.00,CLR,,0.00,WeatherDisplay:10.37,2013-06-23 20:27:00,
2013-06-23 15:32:00,96.4,66.7,29.84,East,82,2.8,3.5,38,0.00,CLR,,0.00,WeatherDisplay:10.37,2013-06-23 20:32:00,
2013-06-23 15:37:00,95.6,68.1,29.84,SW,220,0.1,2.3,41,0.00,CLR,,0.00,WeatherDisplay:10.37,2013-06-23 20:37:00,
2013-06-23 15:42:00,95.7,67.5,29.83,NW,323,0.4,3.0,40,0.00,CLR,,0.00,WeatherDisplay:10.37,2013-06-23 20:42:00,
2013-06-23 15:47:00,96.6,67.6,29.83,SW,228,0.9,1.2,39,0.00,CLR,,0.00,WeatherDisplay:10.37,2013-06-23 20:47:00,
2013-06-23 15:52:00,97.5,67.6,29.83,ENE,73,0.0,0.0,38,0.00,CLR,,0.00,WeatherDisplay:10.37,2013-06-23 20:52:00,
2013-06-23 15:57:00,97.3,65.9,29.83,ENE,77,0.2,1.2,36,0.00,CLR,,0.00,WeatherDisplay:10.37,2013-06-23 20:57:00,
2013-06-23 16:02:00,97.0,66.4,29.83,ENE,78,0.9,3.0,37,0.00,CLR,,0.00,WeatherDisplay:10.37,2013-06-23 21:02:00,
2013-06-23 16:07:00,96.9,67.1,29.83,ENE,76,0.3,1.2,38,0.00,CLR,,0.00,WeatherDisplay:10.37,2013-06-23 21:07:00,
2013-06-23 16:12:00,96.3,66.6,29.82,NE,53,0.4,3.5,38,0.00,CLR,,0.00,WeatherDisplay:10.37,2013-06-23 21:12:00,
2013-06-23 16:17:00,96.5,67.5,29.82,WSW,238,0.6,3.0,39,0.00,CLR,,0.00,WeatherDisplay:10.37,2013-06-23 21:17:00,
2013-06-23 16:22:00,97.4,66.8,29.82,SW,221,0.9,3.0,37,0.00,CLR,,0.00,WeatherDisplay:10.37,2013-06-23 21:22:00,
2013-06-23 16:27:00,98.0,66.5,29.82,WSW,248,4.4,6.9,36,0.00,CLR,,0.00,WeatherDisplay:10.37,2013-06-23 21:27:00,
2013-06-23 16:32:00,98.2,66.7,29.82,North,5,1.3,2.3,36,0.00,CLR,,0.00,WeatherDisplay:10.37,2013-06-23 21:32:00,
2013-06-23 16:37:00,98.7,67.1,29.82,SW,220,0.3,3.5,36,0.00,CLR,,0.00,WeatherDisplay:10.37,2013-06-23 21:37:00,
2013-06-23 16:42:00,98.9,67.3,29.82,SSW,201,1.6,7.0,36,0.00,CLR,,0.00,WeatherDisplay:10.37,2013-06-23 21:42:00,
2013-06-23 16:47:00,98.2,65.9,29.82,NNE,17,0.6,1.2,35,0.00,CLR,,0.00,WeatherDisplay:10.37,2013-06-23 21:47:00,
2013-06-23 16:52:00,97.7,66.2,29.82,East,85,0.3,1.2,36,0.00,CLR,,0.00,WeatherDisplay:10.37,2013-06-23 21:52:00,
2013-06-23 16:57:00,97.0,64.8,29.82,ENE,57,0.0,0.0,35,0.00,CLR,,0.00,WeatherDisplay:10.37,2013-06-23 21:57:00,
2013-06-23 17:02:00,96.0,63.9,29.82,NW,325,0.8,1.2,35,0.00,CLR,,0.00,WeatherDisplay:10.37,2013-06-23 22:02:00,
2013-06-23 17:07:00,95.6,62.8,29.82,ESE,108,0.1,1.2,34,0.00,CLR,,0.00,WeatherDisplay:10.37,2013-06-23 22:07:00,
2013-06-23 17:12:00,95.4,63.4,29.82,NE,35,0.1,1.2,35,0.00,CLR,,0.00,WeatherDisplay:10.37,2013-06-23 22:12:00,
2013-06-23 17:17:00,95.3,62.5,29.82,NNW,344,0.0,0.0,34,0.00,CLR,,0.00,WeatherDisplay:10.37,2013-06-23 22:17:00,
2013-06-23 17:22:00,95.1,63.1,29.82,NNW,330,0.0,0.0,35,0.00,CLR,,0.00,WeatherDisplay:10.37,2013-06-23 22:22:00,
2013-06-23 17:27:00,95.1,63.9,29.81,East,84,0.0,2.3,36,0.00,CLR,,0.00,WeatherDisplay:10.37,2013-06-23 22:27:00,
2013-06-23 17:32:00,95.3,63.3,29.81,ENE,61,0.0,0.0,35,0.00,CLR,,0.00,WeatherDisplay:10.37,2013-06-23 22:32:00,
2013-06-23 17:37:00,95.8,63.8,29.81,NE,51,0.1,1.2,35,0.00,CLR,,0.00,WeatherDisplay:10.37,2013-06-23 22:37:00,
2013-06-23 17:38:00,95.8,63.8,29.81,NE,51,0.2,2.3,35,0.00,CLR,,0.00,WeatherDisplay:10.37,2013-06-23 22:38:00,
2013-06-23 17:43:00,96.0,63.1,29.81,NE,40,0.2,1.2,34,0.00,CLR,,0.00,WeatherDisplay:10.37,2013-06-23 22:43:00,
2013-06-23 17:48:00,96.0,63.9,29.81,ENE,68,0.2,1.2,35,0.00,CLR,,0.00,WeatherDisplay:10.37,2013-06-23 22:48:00,
2013-06-23 17:53:00,96.2,65.7,29.81,NNW,327,0.0,2.3,37,0.00,CLR,,0.00,WeatherDisplay:10.37,2013-06-23 22:53:00,
2013-06-23 17:58:00,96.3,65.0,29.80,East,97,0.1,1.2,36,0.00,CLR,,0.00,WeatherDisplay:10.37,2013-06-23 22:58:00,
2013-06-23 18:03:00,96.3,64.2,29.80,ESE,119,0.0,0.0,35,0.00,CLR,,0.00,WeatherDisplay:10.37,2013-06-23 23:03:00,
2013-06-23 18:08:00,96.3,65.0,29.80,WSW,249,0.0,3.5,36,0.00,CLR,,0.00,WeatherDisplay:10.37,2013-06-23 23:08:00,
2013-06-23 18:13:00,96.1,64.0,29.80,SSE,165,0.1,2.3,35,0.00,CLR,,0.00,WeatherDisplay:10.37,2013-06-23 23:13:00,
2013-06-23 18:18:00,95.9,63.8,29.80,West,263,0.0,3.5,35,0.00,CLR,,0.00,WeatherDisplay:10.37,2013-06-23 23:18:00,
2013-06-23 18:23:00,95.6,63.6,29.80,SSW,207,4.0,4.0,35,0.00,CLR,,0.00,WeatherDisplay:10.37,2013-06-23 23:23:00,
2013-06-23 18:28:00,95.3,64.1,29.80,NE,51,0.1,3.5,36,0.00,CLR,,0.00,WeatherDisplay:10.37,2013-06-23 23:28:00,
2013-06-23 18:33:00,95.1,63.9,29.80,SW,223,0.8,3.0,36,0.00,CLR,,0.00,WeatherDisplay:10.37,2013-06-23 23:33:00,
2013-06-23 18:38:00,94.7,63.6,29.80,WSW,254,1.6,3.5,36,0.00,CLR,,0.00,WeatherDisplay:10.37,2013-06-23 23:38:00,
2013-06-23 18:43:00,94.2,64.7,29.80,SW,233,0.8,3.0,38,0.00,CLR,,0.00,WeatherDisplay:10.37,2013-06-23 23:43:00,
2013-06-23 18:48:00,93.7,65.0,29.80,SSE,161,2.1,7.0,39,0.00,CLR,,0.00,WeatherDisplay:10.37,2013-06-23 23:48:00,
2013-06-23 18:53:00,93.4,65.5,29.80,NE,56,0.0,0.0,40,0.00,CLR,,0.00,WeatherDisplay:10.37,2013-06-23 23:53:00,
2013-06-23 18:58:00,93.1,65.9,29.80,ENE,60,0.0,2.3,41,0.00,CLR,,0.00,WeatherDisplay:10.37,2013-06-23 23:58:00,
2013-06-23 19:03:00,92.8,65.6,29.80,NE,40,0.0,0.0,41,0.00,CLR,,0.00,WeatherDisplay:10.37,2013-06-24 00:03:00,
2013-06-23 19:08:00,92.5,65.4,29.81,West,269,0.0,0.0,41,0.00,CLR,,0.00,WeatherDisplay:10.37,2013-06-24 00:08:00,
2013-06-23 19:13:00,92.2,65.8,29.81,NNW,333,0.0,0.0,42,0.00,CLR,,0.00,WeatherDisplay:10.37,2013-06-24 00:13:00,
2013-06-23 19:18:00,91.9,65.5,29.81,North,355,0.0,0.0,42,0.00,CLR,,0.00,WeatherDisplay:10.37,2013-06-24 00:18:00,
2013-06-23 19:23:00,91.7,64.7,29.81,West,272,0.0,0.0,41,0.00,CLR,,0.00,WeatherDisplay:10.37,2013-06-24 00:23:00,
2013-06-23 19:28:00,91.5,65.8,29.81,WNW,284,0.1,1.2,43,0.00,CLR,,0.00,WeatherDisplay:10.37,2013-06-24 00:28:00,
2013-06-23 19:33:00,91.2,64.9,29.81,North,5,0.0,1.0,42,0.00,CLR,,0.00,WeatherDisplay:10.37,2013-06-24 00:33:00,
2013-06-23 19:38:00,90.9,63.9,29.81,North,5,0.0,0.0,41,0.00,CLR,,0.00,WeatherDisplay:10.37,2013-06-24 00:38:00,
2013-06-23 19:43:00,90.6,63.7,29.81,ENE,67,0.4,1.2,41,0.00,CLR,,0.00,WeatherDisplay:10.37,2013-06-24 00:43:00,
2013-06-23 19:48:00,90.2,62.6,29.81,North,350,0.0,0.0,40,0.00,CLR,,0.00,WeatherDisplay:10.37,2013-06-24 00:48:00,
2013-06-23 19:53:00,90.0,62.4,29.81,NNE,25,0.0,0.0,40,0.00,CLR,,0.00,WeatherDisplay:10.37,2013-06-24 00:53:00,
2013-06-23 19:58:00,89.7,62.9,29.82,North,5,0.0,0.0,41,0.00,CLR,,0.00,WeatherDisplay:10.37,2013-06-24 00:58:00,
2013-06-23 20:03:00,89.5,62.7,29.82,East,90,0.4,2.3,41,0.00,CLR,,0.00,WeatherDisplay:10.37,2013-06-24 01:03:00,
2013-06-23 20:08:00,89.3,62.5,29.82,NE,48,0.5,0.0,41,0.00,CLR,,0.00,WeatherDisplay:10.37,2013-06-24 01:08:00,
2013-06-23 20:13:00,89.0,62.9,29.82,SSW,203,0.0,0.0,42,0.00,CLR,,0.00,WeatherDisplay:10.37,2013-06-24 01:13:00,
2013-06-23 20:18:00,88.9,63.5,29.82,NNE,13,0.0,1.0,43,0.00,CLR,,0.00,WeatherDisplay:10.37,2013-06-24 01:18:00,
2013-06-23 20:23:00,88.8,63.4,29.82,NW,323,0.3,1.2,43,0.00,CLR,,0.00,WeatherDisplay:10.37,2013-06-24 01:23:00,
2013-06-23 20:28:00,88.5,63.8,29.82,North,9,0.0,2.3,44,0.00,CLR,,0.00,WeatherDisplay:10.37,2013-06-24 01:28:00,
2013-06-23 20:33:00,88.3,64.3,29.82,NNW,335,0.0,0.0,45,0.00,CLR,,0.00,WeatherDisplay:10.37,2013-06-24 01:33:00,
2013-06-23 20:38:00,88.1,65.3,29.82,NNW,329,0.0,0.0,47,0.00,CLR,,0.00,WeatherDisplay:10.37,2013-06-24 01:38:00,
2013-06-23 20:43:00,87.9,65.8,29.83,SSW,200,0.0,0.0,48,0.00,CLR,,0.00,WeatherDisplay:10.37,2013-06-24 01:43:00,
2013-06-23 20:48:00,87.5,67.1,29.83,ENE,61,0.0,0.0,51,0.00,CLR,,0.00,WeatherDisplay:10.37,2013-06-24 01:48:00,
2013-06-23 20:53:00,87.2,66.9,29.83,North,360,0.2,1.2,51,0.00,CLR,,0.00,WeatherDisplay:10.37,2013-06-24 01:53:00,
2013-06-23 20:58:00,87.0,67.2,29.83,North,360,0.0,0.0,52,0.00,CLR,,0.00,WeatherDisplay:10.37,2013-06-24 01:58:00,
2013-06-23 21:03:00,86.7,67.0,29.83,West,265,0.0,0.0,52,0.00,CLR,,0.00,WeatherDisplay:10.37,2013-06-24 02:03:00,
2013-06-23 21:08:00,86.4,66.7,29.83,WSW,257,0.0,1.2,52,0.00,CLR,,0.00,WeatherDisplay:10.37,2013-06-24 02:08:00,
2013-06-23 21:13:00,86.2,67.1,29.83,NNE,21,0.0,0.0,53,0.00,CLR,,0.00,WeatherDisplay:10.37,2013-06-24 02:13:00,
2013-06-23 21:18:00,85.9,66.8,29.84,ESE,111,0.9,1.2,53,0.00,CLR,,0.00,WeatherDisplay:10.37,2013-06-24 02:18:00,
2013-06-23 21:23:00,85.7,67.1,29.84,North,350,0.0,2.3,54,0.00,CLR,,0.00,WeatherDisplay:10.37,2013-06-24 02:23:00,
2013-06-23 21:28:00,85.5,67.0,29.84,NNE,28,0.1,1.2,54,0.00,CLR,,0.00,WeatherDisplay:10.37,2013-06-24 02:28:00,
2013-06-23 21:33:00,85.3,67.3,29.84,NW,325,0.0,0.0,55,0.00,CLR,,0.00,WeatherDisplay:10.37,2013-06-24 02:33:00,
2013-06-23 21:38:00,85.0,67.5,29.85,West,279,0.1,1.2,56,0.00,CLR,,0.00,WeatherDisplay:10.37,2013-06-24 02:38:00,
2013-06-23 21:43:00,84.8,67.9,29.85,SSW,200,0.1,0.0,57,0.00,CLR,,0.00,WeatherDisplay:10.37,2013-06-24 02:43:00,
2013-06-23 21:48:00,84.6,68.2,29.85,NNW,337,0.0,3.5,58,0.00,CLR,,0.00,WeatherDisplay:10.37,2013-06-24 02:48:00,
2013-06-23 21:53:00,84.3,67.9,29.86,NNE,30,0.0,3.5,58,0.00,CLR,,0.00,WeatherDisplay:10.37,2013-06-24 02:53:00,
2013-06-23 21:58:00,84.2,68.3,29.86,SW,225,0.0,0.0,59,0.00,CLR,,0.00,WeatherDisplay:10.37,2013-06-24 02:58:00,
2013-06-23 22:03:00,83.9,68.0,29.86,SW,215,0.1,3.5,59,0.00,CLR,,0.00,WeatherDisplay:10.37,2013-06-24 03:03:00,
2013-06-23 22:08:00,83.7,68.3,29.86,NE,55,2.0,3.5,60,0.00,CLR,,0.00,WeatherDisplay:10.37,2013-06-24 03:08:00,
2013-06-23 22:13:00,83.4,68.1,29.86,ENE,69,0.0,1.0,60,0.00,CLR,,0.00,WeatherDisplay:10.37,2013-06-24 03:13:00,
2013-06-23 22:18:00,83.2,68.3,29.87,SSE,156,0.0,1.2,61,0.00,CLR,,0.00,WeatherDisplay:10.37,2013-06-24 03:18:00,
2013-06-23 22:23:00,83.0,68.2,29.87,NE,51,0.0,0.0,61,0.00,CLR,,0.00,WeatherDisplay:10.37,2013-06-24 03:23:00,
2013-06-23 22:28:00,82.9,68.5,29.87,NE,44,0.1,1.2,62,0.00,CLR,,0.00,WeatherDisplay:10.37,2013-06-24 03:28:00,
2013-06-23 22:33:00,82.7,68.4,29.87,NE,43,0.0,2.0,62,0.00,CLR,,0.00,WeatherDisplay:10.37,2013-06-24 03:33:00,
2013-06-23 22:38:00,82.5,68.6,29.88,NW,312,0.1,1.2,63,0.00,CLR,,0.00,WeatherDisplay:10.37,2013-06-24 03:38:00,
2013-06-23 22:43:00,82.3,68.4,29.88,NW,319,0.1,1.0,63,0.00,CLR,,0.00,WeatherDisplay:10.37,2013-06-24 03:43:00,
2013-06-23 22:48:00,82.1,68.7,29.88,NW,309,0.0,0.0,64,0.00,CLR,,0.00,WeatherDisplay:10.37,2013-06-24 03:48:00,
2013-06-23 22:53:00,81.9,69.0,29.89,NE,53,0.0,0.0,65,0.00,CLR,,0.00,WeatherDisplay:10.37,2013-06-24 03:53:00,
2013-06-23 22:58:00,81.8,69.3,29.89,NE,40,0.0,0.0,66,0.00,CLR,,0.00,WeatherDisplay:10.37,2013-06-24 03:58:00,
2013-06-23 23:01:00,81.7,69.2,29.89,NNE,17,0.0,0.0,66,0.00,CLR,,0.00,WeatherDisplay:10.37,2013-06-24 04:01:00,
2013-06-23 23:06:00,81.5,69.0,29.89,NNE,17,0.0,0.0,66,0.00,CLR,,0.00,WeatherDisplay:10.37,2013-06-24 04:06:00,
2013-06-23 23:11:00,81.4,69.4,29.89,NNE,17,0.0,0.0,67,0.00,CLR,,0.00,WeatherDisplay:10.37,2013-06-24 04:11:00,
2013-06-23 23:16:00,81.2,69.2,29.89,NNE,17,0.0,0.0,67,0.00,CLR,,0.00,WeatherDisplay:10.37,2013-06-24 04:16:00,
2013-06-23 23:21:00,80.9,69.3,29.89,SSW,210,0.9,5.8,68,0.00,CLR,,0.00,WeatherDisplay:10.37,2013-06-24 04:21:00,
2013-06-23 23:26:00,80.8,69.7,29.89,SW,217,0.0,0.0,69,0.00,CLR,,0.00,WeatherDisplay:10.37,2013-06-24 04:26:00,
2013-06-23 23:31:00,80.6,69.9,29.90,NW,319,0.0,0.0,70,0.00,CLR,,0.00,WeatherDisplay:10.37,2013-06-24 04:31:00,
2013-06-23 23:36:00,80.5,69.8,29.90,NNE,29,0.0,0.0,70,0.00,CLR,,0.00,WeatherDisplay:10.37,2013-06-24 04:36:00,
2013-06-23 23:41:00,80.3,70.0,29.90,NNW,336,0.0,1.2,71,0.00,CLR,,0.00,WeatherDisplay:10.37,2013-06-24 04:41:00,
2013-06-23 23:46:00,80.1,69.8,29.90,NNW,336,0.0,0.0,71,0.00,CLR,,0.00,WeatherDisplay:10.37,2013-06-24 04:46:00,
2013-06-23 23:51:00,79.9,70.1,29.90,NNE,22,0.0,1.0,72,0.00,CLR,,0.00,WeatherDisplay:10.37,2013-06-24 04:51:00,
2013-06-23 23:56:00,79.8,70.0,29.90,ENE,57,0.0,0.0,72,0.00,CLR,,0.00,WeatherDisplay:10.37,2013-06-24 04:56:00,